Sheppard Air Force Base-Wichita Falls Municipal Airport
KSPS : rendu visible

Aérodrome :











RETROUVEZ-NOUS SUR...

 
LOGIN :

S'inscrire | Disclaimer

   EN    FR    IT 

 









Légende :    VFR   VFR Marginal   IFR   IFR Intensif   IFR Très Intensif
Visi : 
Plafond : 
>= 8 km
>= 3000ft
5 à 8 km
1000 à 3000 ft
1500m à 5 km
500 à 1000 ft
800 à 1500m
200 à 500 ft
< 800m
< 200 ft
Symboles :   Orages  Brouillard  Fortes neiges  Fortes précipitations  Vent > 20 kt







- Altitude de l'aérodrome : 1019 ft
- Code IATA : SPS


KSPS - Sheppard Air Force Base-Wichita Falls Municipal

DERNIER METAR :
  • 241052Z 31006KT 10SM SCT045 BKN055 OVC110 22/22 A2998 RMK AO2 SLP138 T02220217

METARs EXPIRÉS :
  • 240952Z AUTO 32007KT 10SM CLR 22/22 A2997 RMK AO2 SLP136 T02170217
  • 240852Z AUTO 00000KT 10SM CLR 22/22 A2996 RMK AO2 SLP132 T02170217 55006
  • 240752Z AUTO 09003KT 10SM CLR 22/22 A2996 RMK AO2 SLP130 T02220217

TAF KSPS
Valide du 24 à 06h jusqu'au 25 à 06h UTC


240520Z 2406/2506 10007KT P6SM SCT012 SCT250
TEMPO 2411/2415 BKN012
FM241600 15012KT P6SM SCT040 SCT250
Pas de NOTAMs connus pour ce terrain.



MET'MAP, la Météo Aéronautique d'un coup d'oeil ! - Copyright ORBIFLY Décembre 2007 - Disclaimer

ORBIFLY MET'MAP TEAM :

Programmation & Développement : Alexandra Zaïnal
Conception & Développement : Baudouin d'Aumeries
Co-Programmation & Développement : Marc-Olivier Méhu
Soutien technique & logistique : Manuel Goepfert

Contact : metmap@orbifly.com




SOURCES & CREDITS :

   NOAA       Earth
Advisory